sensor_id;sensor_type;location;lat;lon;timestamp;P1;durP1;ratioP1;P2;durP2;ratioP2
7565;SDS011;3824;48.010;7.832;2022-11-23T00:01:48;1.73;;;0.20;;
7565;SDS011;3824;48.010;7.832;2022-11-23T00:04:15;0.40;;;0.20;;
7565;SDS011;3824;48.010;7.832;2022-11-23T00:06:42;3.50;;;0.10;;
7565;SDS011;3824;48.010;7.832;2022-11-23T00:09:13;0.73;;;0.10;;
7565;SDS011;3824;48.010;7.832;2022-11-23T00:11:40;0.50;;;0.13;;
7565;SDS011;3824;48.010;7.832;2022-11-23T00:14:07;1.37;;;0.20;;
7565;SDS011;3824;48.010;7.832;2022-11-23T00:16:33;0.63;;;0.20;;
7565;SDS011;3824;48.010;7.832;2022-11-23T00:19:00;0.40;;;0.10;;
7565;SDS011;3824;48.010;7.832;2022-11-23T00:21:28;2.30;;;0.20;;
7565;SDS011;3824;48.010;7.832;2022-11-23T00:23:56;0.40;;;0.10;;
7565;SDS011;3824;48.010;7.832;2022-11-23T00:26:25;0.57;;;0.10;;
7565;SDS011;3824;48.010;7.832;2022-11-23T00:28:52;0.53;;;0.10;;
7565;SDS011;3824;48.010;7.832;2022-11-23T00:31:19;1.00;;;0.10;;
7565;SDS011;3824;48.010;7.832;2022-11-23T00:33:50;0.30;;;0.10;;
7565;SDS011;3824;48.010;7.832;2022-11-23T00:36:18;0.53;;;0.20;;
7565;SDS011;3824;48.010;7.832;2022-11-23T00:38:46;0.30;;;0.10;;
7565;SDS011;3824;48.010;7.832;2022-11-23T00:41:14;0.30;;;0.10;;
7565;SDS011;3824;48.010;7.832;2022-11-23T00:43:44;0.40;;;0.13;;
7565;SDS011;3824;48.010;7.832;2022-11-23T00:46:12;1.03;;;0.10;;
7565;SDS011;3824;48.010;7.832;2022-11-23T00:48:40;1.10;;;0.33;;
7565;SDS011;3824;48.010;7.832;2022-11-23T00:51:08;0.67;;;0.10;;
7565;SDS011;3824;48.010;7.832;2022-11-23T00:53:36;0.90;;;0.10;;
7565;SDS011;3824;48.010;7.832;2022-11-23T00:56:03;0.30;;;0.10;;
7565;SDS011;3824;48.010;7.832;2022-11-23T00:58:30;0.40;;;0.20;;
7565;SDS011;3824;48.010;7.832;2022-11-23T01:01:05;2.37;;;0.10;;
7565;SDS011;3824;48.010;7.832;2022-11-23T01:03:33;0.43;;;0.20;;
7565;SDS011;3824;48.010;7.832;2022-11-23T01:06:01;0.50;;;0.20;;
7565;SDS011;3824;48.010;7.832;2022-11-23T01:08:31;1.50;;;0.10;;
7565;SDS011;3824;48.010;7.832;2022-11-23T01:10:59;2.63;;;0.20;;
7565;SDS011;3824;48.010;7.832;2022-11-23T01:13:27;0.40;;;0.20;;
7565;SDS011;3824;48.010;7.832;2022-11-23T01:15:54;1.60;;;0.17;;
7565;SDS011;3824;48.010;7.832;2022-11-23T01:18:23;0.60;;;0.20;;
7565;SDS011;3824;48.010;7.832;2022-11-23T01:20:51;1.87;;;0.10;;
7565;SDS011;3824;48.010;7.832;2022-11-23T01:23:18;0.57;;;0.10;;
7565;SDS011;3824;48.010;7.832;2022-11-23T01:25:45;4.87;;;0.20;;
7565;SDS011;3824;48.010;7.832;2022-11-23T01:28:12;0.50;;;0.10;;
7565;SDS011;3824;48.010;7.832;2022-11-23T01:30:39;0.50;;;0.20;;
7565;SDS011;3824;48.010;7.832;2022-11-23T01:33:06;1.00;;;0.10;;
7565;SDS011;3824;48.010;7.832;2022-11-23T01:35:34;0.50;;;0.20;;
7565;SDS011;3824;48.010;7.832;2022-11-23T01:38:01;0.40;;;0.10;;
7565;SDS011;3824;48.010;7.832;2022-11-23T01:40:27;1.37;;;0.83;;
7565;SDS011;3824;48.010;7.832;2022-11-23T01:42:55;0.90;;;0.20;;
7565;SDS011;3824;48.010;7.832;2022-11-23T01:45:34;2.40;;;0.10;;
7565;SDS011;3824;48.010;7.832;2022-11-23T01:48:05;0.30;;;0.10;;
7565;SDS011;3824;48.010;7.832;2022-11-23T01:50:37;0.87;;;0.10;;
7565;SDS011;3824;48.010;7.832;2022-11-23T01:53:04;0.37;;;0.10;;
7565;SDS011;3824;48.010;7.832;2022-11-23T01:55:32;0.50;;;0.20;;
7565;SDS011;3824;48.010;7.832;2022-11-23T01:58:00;1.23;;;0.20;;
7565;SDS011;3824;48.010;7.832;2022-11-23T02:00:28;0.80;;;0.10;;
7565;SDS011;3824;48.010;7.832;2022-11-23T02:02:56;0.30;;;0.10;;
7565;SDS011;3824;48.010;7.832;2022-11-23T02:05:26;1.70;;;0.10;;
7565;SDS011;3824;48.010;7.832;2022-11-23T02:07:58;0.53;;;0.20;;
7565;SDS011;3824;48.010;7.832;2022-11-23T02:10:27;3.07;;;0.20;;
7565;SDS011;3824;48.010;7.832;2022-11-23T02:12:59;0.40;;;0.20;;
7565;SDS011;3824;48.010;7.832;2022-11-23T02:15:27;0.30;;;0.10;;
7565;SDS011;3824;48.010;7.832;2022-11-23T02:17:54;0.90;;;0.13;;
7565;SDS011;3824;48.010;7.832;2022-11-23T02:20:23;2.40;;;0.20;;
7565;SDS011;3824;48.010;7.832;2022-11-23T02:22:53;0.40;;;0.10;;
7565;SDS011;3824;48.010;7.832;2022-11-23T02:25:32;0.57;;;0.20;;
7565;SDS011;3824;48.010;7.832;2022-11-23T02:28:06;0.30;;;0.10;;
7565;SDS011;3824;48.010;7.832;2022-11-23T02:30:33;1.50;;;0.20;;
7565;SDS011;3824;48.010;7.832;2022-11-23T02:33:02;2.43;;;0.10;;
7565;SDS011;3824;48.010;7.832;2022-11-23T02:35:29;1.33;;;0.10;;
7565;SDS011;3824;48.010;7.832;2022-11-23T02:37:56;1.93;;;0.17;;
7565;SDS011;3824;48.010;7.832;2022-11-23T02:40:26;0.60;;;0.10;;
7565;SDS011;3824;48.010;7.832;2022-11-23T02:42:56;0.50;;;0.23;;
7565;SDS011;3824;48.010;7.832;2022-11-23T02:45:27;1.57;;;0.20;;
7565;SDS011;3824;48.010;7.832;2022-11-23T02:48:01;0.50;;;0.13;;
7565;SDS011;3824;48.010;7.832;2022-11-23T02:50:30;0.40;;;0.20;;
7565;SDS011;3824;48.010;7.832;2022-11-23T02:52:57;0.30;;;0.20;;
7565;SDS011;3824;48.010;7.832;2022-11-23T02:55:24;0.40;;;0.10;;
7565;SDS011;3824;48.010;7.832;2022-11-23T02:57:51;4.93;;;0.10;;
7565;SDS011;3824;48.010;7.832;2022-11-23T03:00:18;1.43;;;0.10;;
7565;SDS011;3824;48.010;7.832;2022-11-23T03:02:46;0.50;;;0.13;;
7565;SDS011;3824;48.010;7.832;2022-11-23T03:05:13;0.40;;;0.10;;
7565;SDS011;3824;48.010;7.832;2022-11-23T03:07:40;1.83;;;0.20;;
7565;SDS011;3824;48.010;7.832;2022-11-23T03:10:07;8.93;;;0.20;;
7565;SDS011;3824;48.010;7.832;2022-11-23T03:12:34;0.40;;;0.20;;
7565;SDS011;3824;48.010;7.832;2022-11-23T03:15:01;1.27;;;0.50;;
7565;SDS011;3824;48.010;7.832;2022-11-23T03:17:29;4.63;;;0.10;;
7565;SDS011;3824;48.010;7.832;2022-11-23T03:19:57;1.40;;;0.20;;
7565;SDS011;3824;48.010;7.832;2022-11-23T03:22:24;0.40;;;0.10;;
7565;SDS011;3824;48.010;7.832;2022-11-23T03:24:51;3.00;;;0.20;;
7565;SDS011;3824;48.010;7.832;2022-11-23T03:27:19;0.37;;;0.20;;
7565;SDS011;3824;48.010;7.832;2022-11-23T03:29:46;0.77;;;0.50;;
7565;SDS011;3824;48.010;7.832;2022-11-23T03:32:12;1.50;;;0.20;;
7565;SDS011;3824;48.010;7.832;2022-11-23T03:34:39;372.63;;;95.70;;
7565;SDS011;3824;48.010;7.832;2022-11-23T03:37:07;210.37;;;47.80;;
7565;SDS011;3824;48.010;7.832;2022-11-23T03:39:34;149.80;;;38.80;;
7565;SDS011;3824;48.010;7.832;2022-11-23T03:42:01;237.80;;;58.00;;
7565;SDS011;3824;48.010;7.832;2022-11-23T03:44:28;228.37;;;56.03;;
7565;SDS011;3824;48.010;7.832;2022-11-23T03:46:55;250.70;;;51.20;;
7565;SDS011;3824;48.010;7.832;2022-11-23T03:49:21;151.33;;;37.20;;
7565;SDS011;3824;48.010;7.832;2022-11-23T03:51:48;45.73;;;12.73;;
7565;SDS011;3824;48.010;7.832;2022-11-23T03:54:16;123.53;;;27.73;;
7565;SDS011;3824;48.010;7.832;2022-11-23T03:56:43;142.00;;;30.93;;
7565;SDS011;3824;48.010;7.832;2022-11-23T03:59:10;75.33;;;21.50;;
7565;SDS011;3824;48.010;7.832;2022-11-23T04:01:37;7.43;;;1.60;;
7565;SDS011;3824;48.010;7.832;2022-11-23T04:04:03;15.50;;;4.17;;
7565;SDS011;3824;48.010;7.832;2022-11-23T04:06:30;186.53;;;39.40;;
7565;SDS011;3824;48.010;7.832;2022-11-23T04:08:57;124.97;;;30.10;;
7565;SDS011;3824;48.010;7.832;2022-11-23T04:11:25;142.67;;;32.33;;
7565;SDS011;3824;48.010;7.832;2022-11-23T04:13:52;101.97;;;26.27;;
7565;SDS011;3824;48.010;7.832;2022-11-23T04:16:19;129.97;;;25.80;;
7565;SDS011;3824;48.010;7.832;2022-11-23T04:18:46;220.80;;;55.33;;
7565;SDS011;3824;48.010;7.832;2022-11-23T04:21:12;17.50;;;5.77;;
7565;SDS011;3824;48.010;7.832;2022-11-23T04:23:39;11.20;;;0.40;;
7565;SDS011;3824;48.010;7.832;2022-11-23T04:26:06;5.03;;;0.20;;
7565;SDS011;3824;48.010;7.832;2022-11-23T04:28:34;5.13;;;0.20;;
7565;SDS011;3824;48.010;7.832;2022-11-23T04:31:01;2.50;;;0.30;;
7565;SDS011;3824;48.010;7.832;2022-11-23T04:33:28;1.30;;;0.30;;
7565;SDS011;3824;48.010;7.832;2022-11-23T04:35:55;10.10;;;0.60;;
7565;SDS011;3824;48.010;7.832;2022-11-23T04:38:22;4.03;;;0.30;;
7565;SDS011;3824;48.010;7.832;2022-11-23T04:40:49;3.80;;;0.30;;
7565;SDS011;3824;48.010;7.832;2022-11-23T04:43:16;1.10;;;0.20;;
7565;SDS011;3824;48.010;7.832;2022-11-23T04:45:44;0.60;;;0.10;;
7565;SDS011;3824;48.010;7.832;2022-11-23T04:48:10;0.40;;;0.20;;
7565;SDS011;3824;48.010;7.832;2022-11-23T04:50:37;3.40;;;0.20;;
7565;SDS011;3824;48.010;7.832;2022-11-23T04:53:06;2.17;;;0.70;;
7565;SDS011;3824;48.010;7.832;2022-11-23T04:55:33;2.30;;;0.20;;
7565;SDS011;3824;48.010;7.832;2022-11-23T04:57:59;8.23;;;0.30;;
7565;SDS011;3824;48.010;7.832;2022-11-23T05:00:26;6.63;;;0.47;;
7565;SDS011;3824;48.010;7.832;2022-11-23T05:02:54;10.07;;;0.40;;
7565;SDS011;3824;48.010;7.832;2022-11-23T05:05:24;5.80;;;0.30;;
7565;SDS011;3824;48.010;7.832;2022-11-23T05:07:51;1.50;;;0.27;;
7565;SDS011;3824;48.010;7.832;2022-11-23T05:10:18;0.40;;;0.20;;
7565;SDS011;3824;48.010;7.832;2022-11-23T05:12:44;0.57;;;0.20;;
7565;SDS011;3824;48.010;7.832;2022-11-23T05:15:11;3.23;;;0.40;;
7565;SDS011;3824;48.010;7.832;2022-11-23T05:17:38;1.90;;;0.20;;
7565;SDS011;3824;48.010;7.832;2022-11-23T05:20:07;1.27;;;0.30;;
7565;SDS011;3824;48.010;7.832;2022-11-23T05:22:35;4.10;;;1.03;;
7565;SDS011;3824;48.010;7.832;2022-11-23T05:25:02;4.33;;;0.73;;
7565;SDS011;3824;48.010;7.832;2022-11-23T05:27:30;1.83;;;0.53;;
7565;SDS011;3824;48.010;7.832;2022-11-23T05:29:59;3.50;;;0.20;;
7565;SDS011;3824;48.010;7.832;2022-11-23T05:32:26;2.43;;;0.20;;
7565;SDS011;3824;48.010;7.832;2022-11-23T05:34:53;1.50;;;0.20;;
7565;SDS011;3824;48.010;7.832;2022-11-23T05:37:22;0.60;;;0.20;;
7565;SDS011;3824;48.010;7.832;2022-11-23T05:39:48;0.40;;;0.10;;
7565;SDS011;3824;48.010;7.832;2022-11-23T05:42:15;0.40;;;0.10;;
7565;SDS011;3824;48.010;7.832;2022-11-23T05:44:42;7.10;;;0.50;;
7565;SDS011;3824;48.010;7.832;2022-11-23T05:47:09;0.93;;;0.20;;
7565;SDS011;3824;48.010;7.832;2022-11-23T05:49:36;1.23;;;0.20;;
7565;SDS011;3824;48.010;7.832;2022-11-23T05:52:03;0.40;;;0.10;;
7565;SDS011;3824;48.010;7.832;2022-11-23T05:54:31;1.40;;;0.27;;
7565;SDS011;3824;48.010;7.832;2022-11-23T05:56:58;0.60;;;0.27;;
7565;SDS011;3824;48.010;7.832;2022-11-23T05:59:25;0.30;;;0.10;;
7565;SDS011;3824;48.010;7.832;2022-11-23T06:01:51;0.93;;;0.33;;
7565;SDS011;3824;48.010;7.832;2022-11-23T06:04:18;0.50;;;0.30;;
7565;SDS011;3824;48.010;7.832;2022-11-23T06:06:45;0.73;;;0.73;;
7565;SDS011;3824;48.010;7.832;2022-11-23T06:09:12;0.40;;;0.20;;
7565;SDS011;3824;48.010;7.832;2022-11-23T06:11:40;0.40;;;0.20;;
7565;SDS011;3824;48.010;7.832;2022-11-23T06:14:08;0.70;;;0.30;;
7565;SDS011;3824;48.010;7.832;2022-11-23T06:16:35;0.60;;;0.20;;
7565;SDS011;3824;48.010;7.832;2022-11-23T06:19:02;1.17;;;0.27;;
7565;SDS011;3824;48.010;7.832;2022-11-23T06:21:29;2.10;;;0.40;;
7565;SDS011;3824;48.010;7.832;2022-11-23T06:23:56;0.50;;;0.20;;
7565;SDS011;3824;48.010;7.832;2022-11-23T06:26:23;0.53;;;0.23;;
7565;SDS011;3824;48.010;7.832;2022-11-23T06:28:52;0.40;;;0.10;;
7565;SDS011;3824;48.010;7.832;2022-11-23T06:31:19;0.30;;;0.13;;
7565;SDS011;3824;48.010;7.832;2022-11-23T06:33:46;1.50;;;0.20;;
7565;SDS011;3824;48.010;7.832;2022-11-23T06:36:12;0.60;;;0.20;;
7565;SDS011;3824;48.010;7.832;2022-11-23T06:38:40;0.40;;;0.17;;
7565;SDS011;3824;48.010;7.832;2022-11-23T06:41:06;9.63;;;0.30;;
7565;SDS011;3824;48.010;7.832;2022-11-23T06:43:33;0.50;;;0.10;;
7565;SDS011;3824;48.010;7.832;2022-11-23T06:46:03;0.40;;;0.20;;
7565;SDS011;3824;48.010;7.832;2022-11-23T06:48:31;2.30;;;0.30;;
7565;SDS011;3824;48.010;7.832;2022-11-23T06:50:58;0.70;;;0.20;;
7565;SDS011;3824;48.010;7.832;2022-11-23T06:53:25;0.73;;;0.20;;
7565;SDS011;3824;48.010;7.832;2022-11-23T06:55:56;0.90;;;0.40;;
7565;SDS011;3824;48.010;7.832;2022-11-23T06:58:24;1.17;;;0.87;;
7565;SDS011;3824;48.010;7.832;2022-11-23T07:00:51;2.20;;;0.13;;
7565;SDS011;3824;48.010;7.832;2022-11-23T07:03:19;0.50;;;0.20;;
7565;SDS011;3824;48.010;7.832;2022-11-23T07:05:48;3.83;;;0.30;;
7565;SDS011;3824;48.010;7.832;2022-11-23T07:08:15;9.10;;;0.30;;
7565;SDS011;3824;48.010;7.832;2022-11-23T07:10:42;0.87;;;0.10;;
7565;SDS011;3824;48.010;7.832;2022-11-23T07:13:09;0.50;;;0.30;;
7565;SDS011;3824;48.010;7.832;2022-11-23T07:15:37;0.40;;;0.20;;
7565;SDS011;3824;48.010;7.832;2022-11-23T07:18:04;0.60;;;0.20;;
7565;SDS011;3824;48.010;7.832;2022-11-23T07:20:33;0.40;;;0.20;;
7565;SDS011;3824;48.010;7.832;2022-11-23T07:23:00;0.60;;;0.20;;
7565;SDS011;3824;48.010;7.832;2022-11-23T07:25:28;1.17;;;0.17;;
7565;SDS011;3824;48.010;7.832;2022-11-23T07:27:55;12.03;;;0.23;;
7565;SDS011;3824;48.010;7.832;2022-11-23T07:30:22;0.30;;;0.17;;
7565;SDS011;3824;48.010;7.832;2022-11-23T07:32:50;1.17;;;0.20;;
7565;SDS011;3824;48.010;7.832;2022-11-23T07:35:17;0.53;;;0.20;;
7565;SDS011;3824;48.010;7.832;2022-11-23T07:37:46;0.37;;;0.10;;
7565;SDS011;3824;48.010;7.832;2022-11-23T07:40:13;2.63;;;0.20;;
7565;SDS011;3824;48.010;7.832;2022-11-23T07:42:40;0.63;;;0.47;;
7565;SDS011;3824;48.010;7.832;2022-11-23T07:45:07;3.87;;;0.40;;
7565;SDS011;3824;48.010;7.832;2022-11-23T07:47:36;0.60;;;0.20;;
7565;SDS011;3824;48.010;7.832;2022-11-23T07:50:03;0.60;;;0.20;;
7565;SDS011;3824;48.010;7.832;2022-11-23T07:52:31;0.40;;;0.20;;
7565;SDS011;3824;48.010;7.832;2022-11-23T07:55:01;0.57;;;0.20;;
7565;SDS011;3824;48.010;7.832;2022-11-23T07:57:28;2.30;;;0.20;;
7565;SDS011;3824;48.010;7.832;2022-11-23T07:59:55;0.40;;;0.20;;
7565;SDS011;3824;48.010;7.832;2022-11-23T08:02:22;0.60;;;0.20;;
7565;SDS011;3824;48.010;7.832;2022-11-23T08:04:48;1.90;;;0.20;;
7565;SDS011;3824;48.010;7.832;2022-11-23T08:07:15;5.20;;;0.20;;
7565;SDS011;3824;48.010;7.832;2022-11-23T08:09:42;0.60;;;0.20;;
7565;SDS011;3824;48.010;7.832;2022-11-23T08:12:10;4.40;;;0.20;;
7565;SDS011;3824;48.010;7.832;2022-11-23T08:14:37;0.27;;;0.10;;
7565;SDS011;3824;48.010;7.832;2022-11-23T08:17:04;2.73;;;0.73;;
7565;SDS011;3824;48.010;7.832;2022-11-23T08:19:31;0.60;;;0.20;;
7565;SDS011;3824;48.010;7.832;2022-11-23T08:21:57;2.20;;;0.10;;
7565;SDS011;3824;48.010;7.832;2022-11-23T08:24:24;2.03;;;0.10;;
7565;SDS011;3824;48.010;7.832;2022-11-23T08:26:51;0.60;;;0.20;;
7565;SDS011;3824;48.010;7.832;2022-11-23T08:29:19;0.50;;;0.10;;
7565;SDS011;3824;48.010;7.832;2022-11-23T08:31:46;1.43;;;0.10;;
7565;SDS011;3824;48.010;7.832;2022-11-23T08:34:13;0.40;;;0.10;;
7565;SDS011;3824;48.010;7.832;2022-11-23T08:36:41;0.50;;;0.10;;
7565;SDS011;3824;48.010;7.832;2022-11-23T08:39:07;1.23;;;0.17;;
7565;SDS011;3824;48.010;7.832;2022-11-23T08:41:35;0.97;;;0.10;;
7565;SDS011;3824;48.010;7.832;2022-11-23T08:44:02;2.50;;;0.10;;
7565;SDS011;3824;48.010;7.832;2022-11-23T08:46:30;3.27;;;0.20;;
7565;SDS011;3824;48.010;7.832;2022-11-23T08:48:57;0.60;;;0.20;;
7565;SDS011;3824;48.010;7.832;2022-11-23T08:51:24;0.80;;;0.30;;
7565;SDS011;3824;48.010;7.832;2022-11-23T08:53:51;0.60;;;0.17;;
7565;SDS011;3824;48.010;7.832;2022-11-23T08:56:17;0.60;;;0.13;;
7565;SDS011;3824;48.010;7.832;2022-11-23T08:58:44;1.90;;;0.10;;
7565;SDS011;3824;48.010;7.832;2022-11-23T09:01:13;0.50;;;0.10;;
7565;SDS011;3824;48.010;7.832;2022-11-23T09:03:42;0.30;;;0.10;;
7565;SDS011;3824;48.010;7.832;2022-11-23T09:06:10;0.40;;;0.10;;
7565;SDS011;3824;48.010;7.832;2022-11-23T09:08:37;1.77;;;0.20;;
7565;SDS011;3824;48.010;7.832;2022-11-23T09:11:04;1.40;;;0.20;;
7565;SDS011;3824;48.010;7.832;2022-11-23T09:13:33;3.07;;;0.27;;
7565;SDS011;3824;48.010;7.832;2022-11-23T09:16:01;1.23;;;0.10;;
7565;SDS011;3824;48.010;7.832;2022-11-23T09:18:28;0.70;;;0.10;;
7565;SDS011;3824;48.010;7.832;2022-11-23T09:20:57;0.40;;;0.10;;
7565;SDS011;3824;48.010;7.832;2022-11-23T09:23:24;1.33;;;0.20;;
7565;SDS011;3824;48.010;7.832;2022-11-23T09:25:52;3.33;;;0.20;;
7565;SDS011;3824;48.010;7.832;2022-11-23T09:28:18;0.53;;;0.10;;
7565;SDS011;3824;48.010;7.832;2022-11-23T09:30:46;4.97;;;0.17;;
7565;SDS011;3824;48.010;7.832;2022-11-23T09:33:13;0.43;;;0.17;;
7565;SDS011;3824;48.010;7.832;2022-11-23T09:35:40;0.30;;;0.13;;
7565;SDS011;3824;48.010;7.832;2022-11-23T09:38:08;0.30;;;0.10;;
7565;SDS011;3824;48.010;7.832;2022-11-23T09:40:36;0.30;;;0.10;;
7565;SDS011;3824;48.010;7.832;2022-11-23T09:43:16;1.00;;;0.10;;
7565;SDS011;3824;48.010;7.832;2022-11-23T09:45:58;2.10;;;0.20;;
7565;SDS011;3824;48.010;7.832;2022-11-23T09:48:37;1.77;;;0.20;;
7565;SDS011;3824;48.010;7.832;2022-11-23T09:51:15;6.73;;;0.20;;
7565;SDS011;3824;48.010;7.832;2022-11-23T09:53:45;0.50;;;0.23;;
7565;SDS011;3824;48.010;7.832;2022-11-23T09:56:17;2.00;;;0.30;;
7565;SDS011;3824;48.010;7.832;2022-11-23T09:58:46;1.53;;;0.10;;
7565;SDS011;3824;48.010;7.832;2022-11-23T10:01:17;6.00;;;0.20;;
7565;SDS011;3824;48.010;7.832;2022-11-23T10:03:43;0.50;;;0.10;;
7565;SDS011;3824;48.010;7.832;2022-11-23T10:06:14;0.47;;;0.20;;
7565;SDS011;3824;48.010;7.832;2022-11-23T10:08:47;0.53;;;0.10;;
7565;SDS011;3824;48.010;7.832;2022-11-23T10:14:19;0.60;;;0.20;;
7565;SDS011;3824;48.010;7.832;2022-11-23T10:16:55;0.30;;;0.10;;
7565;SDS011;3824;48.010;7.832;2022-11-23T10:19:30;3.20;;;0.80;;
7565;SDS011;3824;48.010;7.832;2022-11-23T10:22:09;0.30;;;0.10;;
7565;SDS011;3824;48.010;7.832;2022-11-23T10:24:44;1.17;;;0.20;;
7565;SDS011;3824;48.010;7.832;2022-11-23T10:27:15;0.53;;;0.10;;
7565;SDS011;3824;48.010;7.832;2022-11-23T10:29:44;1.03;;;0.10;;
7565;SDS011;3824;48.010;7.832;2022-11-23T10:32:15;5.40;;;1.13;;
7565;SDS011;3824;48.010;7.832;2022-11-23T10:34:54;0.40;;;0.10;;
7565;SDS011;3824;48.010;7.832;2022-11-23T10:37:25;0.40;;;0.10;;
7565;SDS011;3824;48.010;7.832;2022-11-23T10:39:53;0.93;;;0.20;;
7565;SDS011;3824;48.010;7.832;2022-11-23T10:42:22;1.53;;;0.10;;
7565;SDS011;3824;48.010;7.832;2022-11-23T10:44:53;0.50;;;0.20;;
7565;SDS011;3824;48.010;7.832;2022-11-23T10:47:32;0.50;;;0.20;;
7565;SDS011;3824;48.010;7.832;2022-11-23T10:50:10;2.77;;;0.33;;
7565;SDS011;3824;48.010;7.832;2022-11-23T10:52:48;0.50;;;0.20;;
7565;SDS011;3824;48.010;7.832;2022-11-23T10:55:18;2.57;;;0.17;;
7565;SDS011;3824;48.010;7.832;2022-11-23T10:57:49;0.67;;;0.20;;
7565;SDS011;3824;48.010;7.832;2022-11-23T11:00:17;0.30;;;0.10;;
7565;SDS011;3824;48.010;7.832;2022-11-23T11:02:46;0.33;;;0.10;;
7565;SDS011;3824;48.010;7.832;2022-11-23T11:05:21;0.30;;;0.10;;
7565;SDS011;3824;48.010;7.832;2022-11-23T11:07:51;0.50;;;0.10;;
7565;SDS011;3824;48.010;7.832;2022-11-23T11:10:36;0.97;;;0.20;;
7565;SDS011;3824;48.010;7.832;2022-11-23T11:15:55;0.20;;;0.10;;
7565;SDS011;3824;48.010;7.832;2022-11-23T11:18:24;0.40;;;0.10;;
7565;SDS011;3824;48.010;7.832;2022-11-23T11:20:58;0.50;;;0.13;;
7565;SDS011;3824;48.010;7.832;2022-11-23T11:23:27;0.40;;;0.10;;
7565;SDS011;3824;48.010;7.832;2022-11-23T11:26:04;0.40;;;0.10;;
7565;SDS011;3824;48.010;7.832;2022-11-23T11:28:35;0.30;;;0.10;;
7565;SDS011;3824;48.010;7.832;2022-11-23T11:31:26;1.70;;;0.20;;
7565;SDS011;3824;48.010;7.832;2022-11-23T11:34:01;0.50;;;0.20;;
7565;SDS011;3824;48.010;7.832;2022-11-23T11:36:37;0.33;;;0.10;;
7565;SDS011;3824;48.010;7.832;2022-11-23T11:39:09;0.70;;;0.10;;
7565;SDS011;3824;48.010;7.832;2022-11-23T11:41:42;0.30;;;0.10;;
7565;SDS011;3824;48.010;7.832;2022-11-23T11:44:12;0.30;;;0.10;;
7565;SDS011;3824;48.010;7.832;2022-11-23T11:46:44;0.43;;;0.20;;
7565;SDS011;3824;48.010;7.832;2022-11-23T11:49:14;0.50;;;0.10;;
7565;SDS011;3824;48.010;7.832;2022-11-23T11:51:47;2.10;;;0.20;;
7565;SDS011;3824;48.010;7.832;2022-11-23T11:54:19;0.50;;;0.10;;
7565;SDS011;3824;48.010;7.832;2022-11-23T11:56:53;0.67;;;0.40;;
7565;SDS011;3824;48.010;7.832;2022-11-23T11:59:24;1.60;;;0.27;;
7565;SDS011;3824;48.010;7.832;2022-11-23T12:01:55;0.67;;;0.20;;
7565;SDS011;3824;48.010;7.832;2022-11-23T12:04:30;2.50;;;0.50;;
7565;SDS011;3824;48.010;7.832;2022-11-23T12:07:03;0.43;;;0.20;;
7565;SDS011;3824;48.010;7.832;2022-11-23T12:09:34;0.30;;;0.10;;
7565;SDS011;3824;48.010;7.832;2022-11-23T12:12:09;1.30;;;0.17;;
7565;SDS011;3824;48.010;7.832;2022-11-23T12:14:40;1.57;;;0.10;;
7565;SDS011;3824;48.010;7.832;2022-11-23T12:17:09;0.30;;;0.10;;
7565;SDS011;3824;48.010;7.832;2022-11-23T12:19:58;0.27;;;0.10;;
7565;SDS011;3824;48.010;7.832;2022-11-23T12:22:34;0.30;;;0.10;;
7565;SDS011;3824;48.010;7.832;2022-11-23T12:25:14;1.23;;;0.10;;
7565;SDS011;3824;48.010;7.832;2022-11-23T12:27:52;0.30;;;0.10;;
7565;SDS011;3824;48.010;7.832;2022-11-23T12:30:28;0.20;;;0.10;;
7565;SDS011;3824;48.010;7.832;2022-11-23T12:33:08;0.30;;;0.10;;
7565;SDS011;3824;48.010;7.832;2022-11-23T12:35:57;0.30;;;0.10;;
7565;SDS011;3824;48.010;7.832;2022-11-23T12:38:40;0.37;;;0.10;;
7565;SDS011;3824;48.010;7.832;2022-11-23T12:41:22;0.40;;;0.10;;
7565;SDS011;3824;48.010;7.832;2022-11-23T12:44:00;0.37;;;0.10;;
7565;SDS011;3824;48.010;7.832;2022-11-23T12:46:41;0.30;;;0.10;;
7565;SDS011;3824;48.010;7.832;2022-11-23T12:49:18;0.40;;;0.10;;
7565;SDS011;3824;48.010;7.832;2022-11-23T12:51:54;0.40;;;0.10;;
7565;SDS011;3824;48.010;7.832;2022-11-23T12:54:35;0.70;;;0.13;;
7565;SDS011;3824;48.010;7.832;2022-11-23T12:57:10;1.47;;;0.10;;
7565;SDS011;3824;48.010;7.832;2022-11-23T12:59:43;0.97;;;0.10;;
7565;SDS011;3824;48.010;7.832;2022-11-23T13:05:23;0.30;;;0.10;;
7565;SDS011;3824;48.010;7.832;2022-11-23T13:11:05;0.40;;;0.10;;
7565;SDS011;3824;48.010;7.832;2022-11-23T13:13:47;0.30;;;0.10;;
7565;SDS011;3824;48.010;7.832;2022-11-23T13:19:33;0.40;;;0.10;;
7565;SDS011;3824;48.010;7.832;2022-11-23T13:22:23;0.40;;;0.20;;
7565;SDS011;3824;48.010;7.832;2022-11-23T13:25:00;0.80;;;0.20;;
7565;SDS011;3824;48.010;7.832;2022-11-23T13:27:43;0.50;;;0.10;;
7565;SDS011;3824;48.010;7.832;2022-11-23T13:30:30;0.30;;;0.10;;
7565;SDS011;3824;48.010;7.832;2022-11-23T13:33:00;0.90;;;0.13;;
7565;SDS011;3824;48.010;7.832;2022-11-23T13:35:58;0.87;;;0.10;;
7565;SDS011;3824;48.010;7.832;2022-11-23T13:38:26;0.40;;;0.10;;
7565;SDS011;3824;48.010;7.832;2022-11-23T13:41:03;0.30;;;0.10;;
7565;SDS011;3824;48.010;7.832;2022-11-23T13:44:11;0.30;;;0.10;;
7565;SDS011;3824;48.010;7.832;2022-11-23T13:46:53;0.30;;;0.10;;
7565;SDS011;3824;48.010;7.832;2022-11-23T13:49:30;0.30;;;0.10;;
7565;SDS011;3824;48.010;7.832;2022-11-23T13:52:06;1.07;;;0.20;;
7565;SDS011;3824;48.010;7.832;2022-11-23T13:54:52;0.40;;;0.10;;
7565;SDS011;3824;48.010;7.832;2022-11-23T13:57:25;3.47;;;0.20;;
7565;SDS011;3824;48.010;7.832;2022-11-23T13:59:53;0.40;;;0.10;;
7565;SDS011;3824;48.010;7.832;2022-11-23T14:08:18;1.63;;;0.20;;
7565;SDS011;3824;48.010;7.832;2022-11-23T14:10:46;0.30;;;0.10;;
7565;SDS011;3824;48.010;7.832;2022-11-23T14:13:16;0.30;;;0.10;;
7565;SDS011;3824;48.010;7.832;2022-11-23T14:15:50;0.40;;;0.20;;
7565;SDS011;3824;48.010;7.832;2022-11-23T14:18:33;0.37;;;0.27;;
7565;SDS011;3824;48.010;7.832;2022-11-23T14:21:13;0.50;;;0.20;;
7565;SDS011;3824;48.010;7.832;2022-11-23T14:26:34;4.43;;;0.20;;
7565;SDS011;3824;48.010;7.832;2022-11-23T14:29:17;0.50;;;0.10;;
7565;SDS011;3824;48.010;7.832;2022-11-23T14:32:02;1.03;;;0.20;;
7565;SDS011;3824;48.010;7.832;2022-11-23T14:34:37;0.30;;;0.10;;
7565;SDS011;3824;48.010;7.832;2022-11-23T14:37:18;0.43;;;0.10;;
7565;SDS011;3824;48.010;7.832;2022-11-23T14:39:54;0.47;;;0.20;;
7565;SDS011;3824;48.010;7.832;2022-11-23T14:42:28;0.63;;;0.30;;
7565;SDS011;3824;48.010;7.832;2022-11-23T14:44:56;0.40;;;0.20;;
7565;SDS011;3824;48.010;7.832;2022-11-23T14:47:29;0.50;;;0.20;;
7565;SDS011;3824;48.010;7.832;2022-11-23T14:49:56;0.70;;;0.20;;
7565;SDS011;3824;48.010;7.832;2022-11-23T14:52:25;0.30;;;0.10;;
7565;SDS011;3824;48.010;7.832;2022-11-23T14:54:54;0.40;;;0.10;;
7565;SDS011;3824;48.010;7.832;2022-11-23T14:57:23;1.10;;;0.20;;
7565;SDS011;3824;48.010;7.832;2022-11-23T14:59:53;1.20;;;0.20;;
7565;SDS011;3824;48.010;7.832;2022-11-23T15:02:23;0.70;;;0.30;;
7565;SDS011;3824;48.010;7.832;2022-11-23T15:04:59;0.50;;;0.20;;
7565;SDS011;3824;48.010;7.832;2022-11-23T15:07:37;1.17;;;0.20;;
7565;SDS011;3824;48.010;7.832;2022-11-23T15:10:15;0.50;;;0.20;;
7565;SDS011;3824;48.010;7.832;2022-11-23T15:12:54;0.40;;;0.20;;
7565;SDS011;3824;48.010;7.832;2022-11-23T15:15:21;0.30;;;0.10;;
7565;SDS011;3824;48.010;7.832;2022-11-23T15:17:49;0.40;;;0.20;;
7565;SDS011;3824;48.010;7.832;2022-11-23T15:20:17;0.43;;;0.20;;
7565;SDS011;3824;48.010;7.832;2022-11-23T15:22:46;0.40;;;0.20;;
7565;SDS011;3824;48.010;7.832;2022-11-23T15:25:13;1.53;;;0.20;;
7565;SDS011;3824;48.010;7.832;2022-11-23T15:27:43;0.50;;;0.20;;
7565;SDS011;3824;48.010;7.832;2022-11-23T15:30:15;2.10;;;0.30;;
7565;SDS011;3824;48.010;7.832;2022-11-23T15:32:43;3.70;;;0.20;;
7565;SDS011;3824;48.010;7.832;2022-11-23T15:35:27;0.40;;;0.20;;
7565;SDS011;3824;48.010;7.832;2022-11-23T15:37:58;0.53;;;0.20;;
7565;SDS011;3824;48.010;7.832;2022-11-23T15:40:26;0.80;;;0.20;;
7565;SDS011;3824;48.010;7.832;2022-11-23T15:42:56;10.00;;;4.30;;
7565;SDS011;3824;48.010;7.832;2022-11-23T15:45:33;2.30;;;0.30;;
7565;SDS011;3824;48.010;7.832;2022-11-23T15:48:01;0.70;;;0.30;;
7565;SDS011;3824;48.010;7.832;2022-11-23T15:50:29;1.27;;;0.60;;
7565;SDS011;3824;48.010;7.832;2022-11-23T15:52:59;0.70;;;0.40;;
7565;SDS011;3824;48.010;7.832;2022-11-23T15:55:27;2.30;;;0.60;;